sensor_id;sensor_type;location;lat;lon;timestamp;temperature;humidity
32334;DHT22;18810;53.040;8.850;2022-12-18T00:01:43;-6.90;99.90
32334;DHT22;18810;53.040;8.850;2022-12-18T00:04:19;-6.80;99.90
32334;DHT22;18810;53.040;8.850;2022-12-18T00:06:45;-6.90;99.90
32334;DHT22;18810;53.040;8.850;2022-12-18T00:09:11;-6.90;99.90
32334;DHT22;18810;53.040;8.850;2022-12-18T00:11:37;-6.90;99.90
32334;DHT22;18810;53.040;8.850;2022-12-18T00:14:03;-6.80;99.90
32334;DHT22;18810;53.040;8.850;2022-12-18T00:16:29;-6.90;99.90
32334;DHT22;18810;53.040;8.850;2022-12-18T00:19:01;-6.90;99.90
32334;DHT22;18810;53.040;8.850;2022-12-18T00:21:29;-6.90;99.90
32334;DHT22;18810;53.040;8.850;2022-12-18T00:23:55;-7.00;99.90
32334;DHT22;18810;53.040;8.850;2022-12-18T00:26:26;-7.00;99.90
32334;DHT22;18810;53.040;8.850;2022-12-18T00:28:52;-7.00;99.90
32334;DHT22;18810;53.040;8.850;2022-12-18T00:31:21;-7.00;99.90
32334;DHT22;18810;53.040;8.850;2022-12-18T00:33:47;-6.90;99.90
32334;DHT22;18810;53.040;8.850;2022-12-18T00:36:15;-6.90;99.90
32334;DHT22;18810;53.040;8.850;2022-12-18T00:38:43;-7.00;99.90
32334;DHT22;18810;53.040;8.850;2022-12-18T00:41:10;-7.00;99.90
32334;DHT22;18810;53.040;8.850;2022-12-18T00:43:37;-7.10;99.90
32334;DHT22;18810;53.040;8.850;2022-12-18T00:46:03;-7.10;99.90
32334;DHT22;18810;53.040;8.850;2022-12-18T00:48:29;-7.10;99.90
32334;DHT22;18810;53.040;8.850;2022-12-18T00:50:55;-7.00;99.90
32334;DHT22;18810;53.040;8.850;2022-12-18T00:53:21;-7.10;99.90
32334;DHT22;18810;53.040;8.850;2022-12-18T00:55:47;-7.10;99.90
32334;DHT22;18810;53.040;8.850;2022-12-18T00:58:14;-7.10;99.90
32334;DHT22;18810;53.040;8.850;2022-12-18T01:00:41;-7.10;99.90
32334;DHT22;18810;53.040;8.850;2022-12-18T01:03:07;-7.00;99.90
32334;DHT22;18810;53.040;8.850;2022-12-18T01:05:33;-7.00;99.90
32334;DHT22;18810;53.040;8.850;2022-12-18T01:07:59;-7.00;99.90
32334;DHT22;18810;53.040;8.850;2022-12-18T01:10:25;-7.00;99.90
32334;DHT22;18810;53.040;8.850;2022-12-18T01:12:51;-6.90;99.90
32334;DHT22;18810;53.040;8.850;2022-12-18T01:15:18;-6.90;99.90
32334;DHT22;18810;53.040;8.850;2022-12-18T01:17:43;-7.00;99.90
32334;DHT22;18810;53.040;8.850;2022-12-18T01:20:12;-7.00;99.90
32334;DHT22;18810;53.040;8.850;2022-12-18T01:22:38;-7.10;99.90
32334;DHT22;18810;53.040;8.850;2022-12-18T01:25:04;-7.10;99.90
32334;DHT22;18810;53.040;8.850;2022-12-18T01:27:30;-7.10;99.90
32334;DHT22;18810;53.040;8.850;2022-12-18T01:29:56;-7.00;99.90
32334;DHT22;18810;53.040;8.850;2022-12-18T01:32:22;-7.00;99.90
32334;DHT22;18810;53.040;8.850;2022-12-18T01:34:47;-7.00;99.90
32334;DHT22;18810;53.040;8.850;2022-12-18T01:37:13;-6.90;99.90
32334;DHT22;18810;53.040;8.850;2022-12-18T01:39:39;-6.80;99.90
32334;DHT22;18810;53.040;8.850;2022-12-18T01:42:11;-6.80;99.90
32334;DHT22;18810;53.040;8.850;2022-12-18T01:44:54;-6.90;99.90
32334;DHT22;18810;53.040;8.850;2022-12-18T01:47:24;-6.90;99.90
32334;DHT22;18810;53.040;8.850;2022-12-18T01:49:50;-6.90;99.90
32334;DHT22;18810;53.040;8.850;2022-12-18T01:52:17;-7.00;99.90
32334;DHT22;18810;53.040;8.850;2022-12-18T01:54:53;-7.00;99.90
32334;DHT22;18810;53.040;8.850;2022-12-18T01:57:23;-7.00;99.90
32334;DHT22;18810;53.040;8.850;2022-12-18T01:59:52;-7.00;99.90
32334;DHT22;18810;53.040;8.850;2022-12-18T02:02:20;-6.90;99.90
32334;DHT22;18810;53.040;8.850;2022-12-18T02:04:46;-7.00;99.90
32334;DHT22;18810;53.040;8.850;2022-12-18T02:07:38;-7.00;99.90
32334;DHT22;18810;53.040;8.850;2022-12-18T02:10:28;-6.90;99.90
32334;DHT22;18810;53.040;8.850;2022-12-18T02:15:41;-7.00;99.90
32334;DHT22;18810;53.040;8.850;2022-12-18T02:18:18;-7.00;99.90
32334;DHT22;18810;53.040;8.850;2022-12-18T02:20:55;-7.00;99.90
32334;DHT22;18810;53.040;8.850;2022-12-18T02:28:36;-6.90;99.90
32334;DHT22;18810;53.040;8.850;2022-12-18T02:31:06;-6.90;99.90
32334;DHT22;18810;53.040;8.850;2022-12-18T02:33:34;-6.80;99.90
32334;DHT22;18810;53.040;8.850;2022-12-18T02:36:01;-6.90;99.90
32334;DHT22;18810;53.040;8.850;2022-12-18T02:38:29;-6.80;99.90
32334;DHT22;18810;53.040;8.850;2022-12-18T02:40:57;-6.90;99.90
32334;DHT22;18810;53.040;8.850;2022-12-18T02:43:22;-7.00;99.90
32334;DHT22;18810;53.040;8.850;2022-12-18T02:45:58;-6.90;99.90
32334;DHT22;18810;53.040;8.850;2022-12-18T02:48:27;-6.90;99.90
32334;DHT22;18810;53.040;8.850;2022-12-18T02:53:50;-6.90;99.90
32334;DHT22;18810;53.040;8.850;2022-12-18T02:56:23;-6.90;99.90
32334;DHT22;18810;53.040;8.850;2022-12-18T02:59:11;-6.80;99.90
32334;DHT22;18810;53.040;8.850;2022-12-18T03:01:57;-6.90;99.90
32334;DHT22;18810;53.040;8.850;2022-12-18T03:04:59;-6.90;99.90
32334;DHT22;18810;53.040;8.850;2022-12-18T03:07:34;-6.90;99.90
32334;DHT22;18810;53.040;8.850;2022-12-18T03:10:01;-7.00;99.90
32334;DHT22;18810;53.040;8.850;2022-12-18T03:12:34;-7.00;99.90
32334;DHT22;18810;53.040;8.850;2022-12-18T03:15:09;-6.90;99.90
32334;DHT22;18810;53.040;8.850;2022-12-18T03:17:37;-7.00;99.90
32334;DHT22;18810;53.040;8.850;2022-12-18T03:20:14;-7.00;99.90
32334;DHT22;18810;53.040;8.850;2022-12-18T03:22:42;-6.90;99.90
32334;DHT22;18810;53.040;8.850;2022-12-18T03:25:11;-7.00;99.90
32334;DHT22;18810;53.040;8.850;2022-12-18T03:27:44;-6.90;99.90
32334;DHT22;18810;53.040;8.850;2022-12-18T03:30:12;-6.90;99.90
32334;DHT22;18810;53.040;8.850;2022-12-18T03:32:56;-6.90;99.90
32334;DHT22;18810;53.040;8.850;2022-12-18T03:35:28;-7.00;99.90
32334;DHT22;18810;53.040;8.850;2022-12-18T03:37:55;-7.00;99.90
32334;DHT22;18810;53.040;8.850;2022-12-18T03:40:25;-7.00;99.90
32334;DHT22;18810;53.040;8.850;2022-12-18T03:42:57;-7.00;99.90
32334;DHT22;18810;53.040;8.850;2022-12-18T03:45:51;-7.00;99.90
32334;DHT22;18810;53.040;8.850;2022-12-18T03:48:31;-7.00;99.90
32334;DHT22;18810;53.040;8.850;2022-12-18T03:51:11;-7.00;99.90
32334;DHT22;18810;53.040;8.850;2022-12-18T03:53:52;-7.00;99.90
32334;DHT22;18810;53.040;8.850;2022-12-18T03:56:21;-6.90;99.90
32334;DHT22;18810;53.040;8.850;2022-12-18T03:58:49;-7.00;99.90
32334;DHT22;18810;53.040;8.850;2022-12-18T04:01:17;-7.00;99.90
32334;DHT22;18810;53.040;8.850;2022-12-18T04:03:46;-7.10;99.90
32334;DHT22;18810;53.040;8.850;2022-12-18T04:06:14;-7.10;99.90
32334;DHT22;18810;53.040;8.850;2022-12-18T04:08:41;-7.10;99.90
32334;DHT22;18810;53.040;8.850;2022-12-18T04:11:06;-7.00;99.90
32334;DHT22;18810;53.040;8.850;2022-12-18T04:13:35;-7.00;99.90
32334;DHT22;18810;53.040;8.850;2022-12-18T04:16:01;-7.10;99.90
32334;DHT22;18810;53.040;8.850;2022-12-18T04:18:27;-7.00;99.90
32334;DHT22;18810;53.040;8.850;2022-12-18T04:20:53;-7.00;99.90
32334;DHT22;18810;53.040;8.850;2022-12-18T04:23:18;-7.10;99.90
32334;DHT22;18810;53.040;8.850;2022-12-18T04:25:44;-7.20;99.90
32334;DHT22;18810;53.040;8.850;2022-12-18T04:28:10;-7.20;99.90
32334;DHT22;18810;53.040;8.850;2022-12-18T04:30:36;-7.20;99.90
32334;DHT22;18810;53.040;8.850;2022-12-18T04:33:02;-7.10;99.90
32334;DHT22;18810;53.040;8.850;2022-12-18T04:35:27;-7.10;99.90
32334;DHT22;18810;53.040;8.850;2022-12-18T04:37:53;-7.20;99.90
32334;DHT22;18810;53.040;8.850;2022-12-18T04:40:19;-7.20;99.90
32334;DHT22;18810;53.040;8.850;2022-12-18T04:42:44;-7.20;99.90
32334;DHT22;18810;53.040;8.850;2022-12-18T04:45:10;-7.20;99.90
32334;DHT22;18810;53.040;8.850;2022-12-18T04:47:36;-7.30;99.90
32334;DHT22;18810;53.040;8.850;2022-12-18T04:50:02;-7.30;99.90
32334;DHT22;18810;53.040;8.850;2022-12-18T04:52:27;-7.30;99.90
32334;DHT22;18810;53.040;8.850;2022-12-18T04:54:53;-7.30;99.90
32334;DHT22;18810;53.040;8.850;2022-12-18T04:57:19;-7.30;99.90
32334;DHT22;18810;53.040;8.850;2022-12-18T04:59:44;-7.30;99.90
32334;DHT22;18810;53.040;8.850;2022-12-18T05:02:10;-7.30;99.90
32334;DHT22;18810;53.040;8.850;2022-12-18T05:04:36;-7.30;99.90
32334;DHT22;18810;53.040;8.850;2022-12-18T05:07:02;-7.30;99.90
32334;DHT22;18810;53.040;8.850;2022-12-18T05:09:28;-7.30;99.90
32334;DHT22;18810;53.040;8.850;2022-12-18T05:11:56;-7.30;99.90
32334;DHT22;18810;53.040;8.850;2022-12-18T05:14:25;-7.30;99.90
32334;DHT22;18810;53.040;8.850;2022-12-18T05:16:53;-7.30;99.90
32334;DHT22;18810;53.040;8.850;2022-12-18T05:19:18;-7.30;99.90
32334;DHT22;18810;53.040;8.850;2022-12-18T05:21:44;-7.30;99.90
32334;DHT22;18810;53.040;8.850;2022-12-18T05:24:10;-7.30;99.90
32334;DHT22;18810;53.040;8.850;2022-12-18T05:26:35;-7.30;99.90
32334;DHT22;18810;53.040;8.850;2022-12-18T05:29:01;-7.30;99.90
32334;DHT22;18810;53.040;8.850;2022-12-18T05:31:27;-7.30;99.90
32334;DHT22;18810;53.040;8.850;2022-12-18T05:33:53;-7.40;99.90
32334;DHT22;18810;53.040;8.850;2022-12-18T05:36:19;-7.40;99.90
32334;DHT22;18810;53.040;8.850;2022-12-18T05:38:45;-7.30;99.90
32334;DHT22;18810;53.040;8.850;2022-12-18T05:41:10;-7.30;99.90
32334;DHT22;18810;53.040;8.850;2022-12-18T05:43:37;-7.30;99.90
32334;DHT22;18810;53.040;8.850;2022-12-18T05:46:05;-7.30;99.90
32334;DHT22;18810;53.040;8.850;2022-12-18T05:48:31;-7.30;99.90
32334;DHT22;18810;53.040;8.850;2022-12-18T05:51:07;-7.30;99.90
32334;DHT22;18810;53.040;8.850;2022-12-18T05:53:33;-7.30;99.90
32334;DHT22;18810;53.040;8.850;2022-12-18T05:56:01;-7.40;99.90
32334;DHT22;18810;53.040;8.850;2022-12-18T05:58:27;-7.30;99.90
32334;DHT22;18810;53.040;8.850;2022-12-18T06:00:53;-7.30;99.90
32334;DHT22;18810;53.040;8.850;2022-12-18T06:03:18;-7.40;99.90
32334;DHT22;18810;53.040;8.850;2022-12-18T06:05:45;-7.50;99.90
32334;DHT22;18810;53.040;8.850;2022-12-18T06:08:11;-7.40;99.90
32334;DHT22;18810;53.040;8.850;2022-12-18T06:10:38;-7.40;99.90
32334;DHT22;18810;53.040;8.850;2022-12-18T06:13:05;-7.40;99.90
32334;DHT22;18810;53.040;8.850;2022-12-18T06:15:32;-7.40;99.90
32334;DHT22;18810;53.040;8.850;2022-12-18T06:17:58;-7.40;99.90
32334;DHT22;18810;53.040;8.850;2022-12-18T06:20:25;-7.40;99.90
32334;DHT22;18810;53.040;8.850;2022-12-18T06:22:51;-7.30;99.90
32334;DHT22;18810;53.040;8.850;2022-12-18T06:25:16;-7.30;99.90
32334;DHT22;18810;53.040;8.850;2022-12-18T06:27:42;-7.30;99.90
32334;DHT22;18810;53.040;8.850;2022-12-18T06:30:09;-7.30;99.90
32334;DHT22;18810;53.040;8.850;2022-12-18T06:32:34;-7.40;99.90
32334;DHT22;18810;53.040;8.850;2022-12-18T06:35:00;-7.30;99.90
32334;DHT22;18810;53.040;8.850;2022-12-18T06:37:26;-7.40;99.90
32334;DHT22;18810;53.040;8.850;2022-12-18T06:39:55;-7.40;99.90
32334;DHT22;18810;53.040;8.850;2022-12-18T06:42:22;-7.40;99.90
32334;DHT22;18810;53.040;8.850;2022-12-18T06:44:47;-7.40;99.90
32334;DHT22;18810;53.040;8.850;2022-12-18T06:47:13;-7.30;99.90
32334;DHT22;18810;53.040;8.850;2022-12-18T06:49:39;-7.40;99.90
32334;DHT22;18810;53.040;8.850;2022-12-18T06:52:04;-7.40;99.90
32334;DHT22;18810;53.040;8.850;2022-12-18T06:54:30;-7.30;99.90
32334;DHT22;18810;53.040;8.850;2022-12-18T06:56:56;-7.30;99.90
32334;DHT22;18810;53.040;8.850;2022-12-18T06:59:22;-7.40;99.90
32334;DHT22;18810;53.040;8.850;2022-12-18T07:01:47;-7.40;99.90
32334;DHT22;18810;53.040;8.850;2022-12-18T07:04:13;-7.40;99.90
32334;DHT22;18810;53.040;8.850;2022-12-18T07:06:39;-7.50;99.90
32334;DHT22;18810;53.040;8.850;2022-12-18T07:09:04;-7.50;99.90
32334;DHT22;18810;53.040;8.850;2022-12-18T07:11:33;-7.50;99.90
32334;DHT22;18810;53.040;8.850;2022-12-18T07:13:59;-7.40;99.90
32334;DHT22;18810;53.040;8.850;2022-12-18T07:16:25;-7.50;99.90
32334;DHT22;18810;53.040;8.850;2022-12-18T07:18:52;-7.40;99.90
32334;DHT22;18810;53.040;8.850;2022-12-18T07:21:19;-7.50;99.90
32334;DHT22;18810;53.040;8.850;2022-12-18T07:23:45;-7.40;99.90
32334;DHT22;18810;53.040;8.850;2022-12-18T07:26:15;-7.40;99.90
32334;DHT22;18810;53.040;8.850;2022-12-18T07:28:41;-7.40;99.90
32334;DHT22;18810;53.040;8.850;2022-12-18T07:31:12;-7.40;99.90
32334;DHT22;18810;53.040;8.850;2022-12-18T07:33:38;-7.30;99.90
32334;DHT22;18810;53.040;8.850;2022-12-18T07:36:06;-7.40;99.90
32334;DHT22;18810;53.040;8.850;2022-12-18T07:38:33;-7.50;99.90
32334;DHT22;18810;53.040;8.850;2022-12-18T07:41:06;-7.50;99.90
32334;DHT22;18810;53.040;8.850;2022-12-18T07:43:32;-7.60;99.90
32334;DHT22;18810;53.040;8.850;2022-12-18T07:45:58;-7.60;99.90
32334;DHT22;18810;53.040;8.850;2022-12-18T07:48:23;-7.60;99.90
32334;DHT22;18810;53.040;8.850;2022-12-18T07:50:49;-7.60;99.90
32334;DHT22;18810;53.040;8.850;2022-12-18T07:53:15;-7.50;99.90
32334;DHT22;18810;53.040;8.850;2022-12-18T07:55:41;-7.50;99.90
32334;DHT22;18810;53.040;8.850;2022-12-18T07:58:08;-7.50;99.90
32334;DHT22;18810;53.040;8.850;2022-12-18T08:00:34;-7.50;99.90
32334;DHT22;18810;53.040;8.850;2022-12-18T08:03:00;-7.50;99.90
32334;DHT22;18810;53.040;8.850;2022-12-18T08:05:26;-7.50;99.90
32334;DHT22;18810;53.040;8.850;2022-12-18T08:07:53;-7.50;99.90
32334;DHT22;18810;53.040;8.850;2022-12-18T08:10:19;-7.50;99.90
32334;DHT22;18810;53.040;8.850;2022-12-18T08:12:45;-7.40;99.90
32334;DHT22;18810;53.040;8.850;2022-12-18T08:15:11;-7.30;99.90
32334;DHT22;18810;53.040;8.850;2022-12-18T08:17:36;-7.30;99.90
32334;DHT22;18810;53.040;8.850;2022-12-18T08:20:02;-7.20;99.90
32334;DHT22;18810;53.040;8.850;2022-12-18T08:22:28;-7.20;99.90
32334;DHT22;18810;53.040;8.850;2022-12-18T08:24:54;-6.40;99.90
32334;DHT22;18810;53.040;8.850;2022-12-18T08:27:20;-7.10;99.90
32334;DHT22;18810;53.040;8.850;2022-12-18T08:29:45;-6.90;99.90
32334;DHT22;18810;53.040;8.850;2022-12-18T08:32:11;-6.90;99.90
32334;DHT22;18810;53.040;8.850;2022-12-18T08:34:37;-6.70;99.90
32334;DHT22;18810;53.040;8.850;2022-12-18T08:37:03;-6.40;99.90
32334;DHT22;18810;53.040;8.850;2022-12-18T08:39:29;-6.20;99.90
32334;DHT22;18810;53.040;8.850;2022-12-18T08:41:55;-6.00;99.90
32334;DHT22;18810;53.040;8.850;2022-12-18T08:44:39;-6.00;99.90
32334;DHT22;18810;53.040;8.850;2022-12-18T08:47:05;-5.90;99.90
32334;DHT22;18810;53.040;8.850;2022-12-18T08:49:32;-5.80;99.90
32334;DHT22;18810;53.040;8.850;2022-12-18T08:51:58;-5.60;99.90
32334;DHT22;18810;53.040;8.850;2022-12-18T08:54:24;-5.40;99.90
32334;DHT22;18810;53.040;8.850;2022-12-18T08:56:50;-5.20;99.90
32334;DHT22;18810;53.040;8.850;2022-12-18T08:59:17;-4.90;99.90
32334;DHT22;18810;53.040;8.850;2022-12-18T09:01:43;-4.80;99.90
32334;DHT22;18810;53.040;8.850;2022-12-18T09:04:09;-4.90;99.90
32334;DHT22;18810;53.040;8.850;2022-12-18T09:06:35;-4.90;99.90
32334;DHT22;18810;53.040;8.850;2022-12-18T09:09:01;-4.90;99.90
32334;DHT22;18810;53.040;8.850;2022-12-18T09:11:28;-4.90;99.90
32334;DHT22;18810;53.040;8.850;2022-12-18T09:13:55;-4.80;99.90
32334;DHT22;18810;53.040;8.850;2022-12-18T09:16:23;-4.50;99.90
32334;DHT22;18810;53.040;8.850;2022-12-18T09:18:49;-4.30;99.90
32334;DHT22;18810;53.040;8.850;2022-12-18T09:21:17;-4.20;99.90
32334;DHT22;18810;53.040;8.850;2022-12-18T09:23:43;-3.60;99.90
32334;DHT22;18810;53.040;8.850;2022-12-18T09:26:10;-3.80;99.90
32334;DHT22;18810;53.040;8.850;2022-12-18T09:28:35;-4.00;99.90
32334;DHT22;18810;53.040;8.850;2022-12-18T09:31:06;-3.90;99.90
32334;DHT22;18810;53.040;8.850;2022-12-18T09:33:36;-3.90;99.90
32334;DHT22;18810;53.040;8.850;2022-12-18T09:36:04;-3.90;99.90
32334;DHT22;18810;53.040;8.850;2022-12-18T09:38:31;-3.90;99.90
32334;DHT22;18810;53.040;8.850;2022-12-18T09:44:05;-3.80;99.90
32334;DHT22;18810;53.040;8.850;2022-12-18T09:46:40;-3.70;99.90
32334;DHT22;18810;53.040;8.850;2022-12-18T09:49:14;-3.50;99.90
32334;DHT22;18810;53.040;8.850;2022-12-18T09:51:52;-3.50;99.90
32334;DHT22;18810;53.040;8.850;2022-12-18T09:54:36;-3.50;99.90
32334;DHT22;18810;53.040;8.850;2022-12-18T09:57:04;-3.50;99.90
32334;DHT22;18810;53.040;8.850;2022-12-18T10:01:58;-3.40;99.90
32334;DHT22;18810;53.040;8.850;2022-12-18T10:04:24;-3.40;99.90
32334;DHT22;18810;53.040;8.850;2022-12-18T10:07:03;-3.10;99.90
32334;DHT22;18810;53.040;8.850;2022-12-18T10:09:37;-3.10;99.90
32334;DHT22;18810;53.040;8.850;2022-12-18T10:28:19;-2.60;99.90
32334;DHT22;18810;53.040;8.850;2022-12-18T10:30:45;-2.80;99.90
32334;DHT22;18810;53.040;8.850;2022-12-18T10:33:19;-2.80;99.90
32334;DHT22;18810;53.040;8.850;2022-12-18T10:35:45;-2.50;99.90
32334;DHT22;18810;53.040;8.850;2022-12-18T10:40:59;-2.40;99.90
32334;DHT22;18810;53.040;8.850;2022-12-18T10:43:36;-2.60;99.90
32334;DHT22;18810;53.040;8.850;2022-12-18T10:51:29;-2.80;99.90
32334;DHT22;18810;53.040;8.850;2022-12-18T10:54:05;-2.80;99.90
32334;DHT22;18810;53.040;8.850;2022-12-18T10:56:35;-3.00;99.90
32334;DHT22;18810;53.040;8.850;2022-12-18T10:59:04;-2.90;99.90
32334;DHT22;18810;53.040;8.850;2022-12-18T11:04:51;-2.70;99.90
32334;DHT22;18810;53.040;8.850;2022-12-18T11:07:17;-2.50;99.90
32334;DHT22;18810;53.040;8.850;2022-12-18T11:09:42;-2.50;99.90
32334;DHT22;18810;53.040;8.850;2022-12-18T11:12:19;-2.50;99.90
32334;DHT22;18810;53.040;8.850;2022-12-18T11:14:52;-2.40;99.90
32334;DHT22;18810;53.040;8.850;2022-12-18T11:17:19;-2.10;99.90
32334;DHT22;18810;53.040;8.850;2022-12-18T11:19:55;-1.80;99.90
32334;DHT22;18810;53.040;8.850;2022-12-18T11:22:27;-1.30;99.90
32334;DHT22;18810;53.040;8.850;2022-12-18T11:25:02;-0.90;99.90
32334;DHT22;18810;53.040;8.850;2022-12-18T11:27:29;-0.90;99.90
32334;DHT22;18810;53.040;8.850;2022-12-18T11:30:10;-1.00;99.90
32334;DHT22;18810;53.040;8.850;2022-12-18T11:32:48;-1.10;99.90
32334;DHT22;18810;53.040;8.850;2022-12-18T11:35:32;-1.10;99.90
32334;DHT22;18810;53.040;8.850;2022-12-18T11:38:04;-0.90;99.90
32334;DHT22;18810;53.040;8.850;2022-12-18T11:40:35;-0.80;99.90
32334;DHT22;18810;53.040;8.850;2022-12-18T11:43:28;-0.60;99.90
32334;DHT22;18810;53.040;8.850;2022-12-18T11:46:07;-0.10;99.90
32334;DHT22;18810;53.040;8.850;2022-12-18T11:51:28;0.00;99.90
32334;DHT22;18810;53.040;8.850;2022-12-18T11:53:55;0.00;99.90
32334;DHT22;18810;53.040;8.850;2022-12-18T11:56:35;0.20;99.90
32334;DHT22;18810;53.040;8.850;2022-12-18T11:59:40;0.10;99.90
32334;DHT22;18810;53.040;8.850;2022-12-18T12:04:47;-0.40;99.90
32334;DHT22;18810;53.040;8.850;2022-12-18T12:16:05;-0.30;99.90
32334;DHT22;18810;53.040;8.850;2022-12-18T12:23:52;-0.60;99.90
32334;DHT22;18810;53.040;8.850;2022-12-18T12:32:05;-0.80;99.90
32334;DHT22;18810;53.040;8.850;2022-12-18T12:40:04;-1.10;99.90
32334;DHT22;18810;53.040;8.850;2022-12-18T12:42:43;-1.00;99.90
32334;DHT22;18810;53.040;8.850;2022-12-18T12:45:53;-1.90;99.90
32334;DHT22;18810;53.040;8.850;2022-12-18T12:51:04;-1.50;99.90
32334;DHT22;18810;53.040;8.850;2022-12-18T12:53:36;-1.30;99.90
32334;DHT22;18810;53.040;8.850;2022-12-18T12:56:03;-1.40;99.90
32334;DHT22;18810;53.040;8.850;2022-12-18T13:09:21;-1.30;99.90
32334;DHT22;18810;53.040;8.850;2022-12-18T13:11:47;-1.40;99.90
32334;DHT22;18810;53.040;8.850;2022-12-18T13:14:35;-1.40;99.90
32334;DHT22;18810;53.040;8.850;2022-12-18T13:17:34;-1.50;99.90
32334;DHT22;18810;53.040;8.850;2022-12-18T13:22:46;-1.60;99.90
32334;DHT22;18810;53.040;8.850;2022-12-18T13:25:41;-1.60;99.90
32334;DHT22;18810;53.040;8.850;2022-12-18T13:46:23;-1.60;99.90
32334;DHT22;18810;53.040;8.850;2022-12-18T13:48:58;-1.70;99.90
32334;DHT22;18810;53.040;8.850;2022-12-18T13:51:26;-1.70;99.90
32334;DHT22;18810;53.040;8.850;2022-12-18T13:54:18;-1.80;99.90
32334;DHT22;18810;53.040;8.850;2022-12-18T13:56:46;-1.80;99.90
32334;DHT22;18810;53.040;8.850;2022-12-18T13:59:39;-1.80;99.90
32334;DHT22;18810;53.040;8.850;2022-12-18T14:02:17;-1.80;99.90
32334;DHT22;18810;53.040;8.850;2022-12-18T14:04:47;-1.80;99.90
32334;DHT22;18810;53.040;8.850;2022-12-18T14:07:16;-1.80;99.90
32334;DHT22;18810;53.040;8.850;2022-12-18T14:09:46;-1.80;99.90
32334;DHT22;18810;53.040;8.850;2022-12-18T14:12:32;-1.90;99.90
32334;DHT22;18810;53.040;8.850;2022-12-18T14:20:43;-1.80;99.90
32334;DHT22;18810;53.040;8.850;2022-12-18T14:23:44;-1.90;99.90
32334;DHT22;18810;53.040;8.850;2022-12-18T14:26:26;-1.90;99.90
32334;DHT22;18810;53.040;8.850;2022-12-18T14:28:55;-1.90;99.90
32334;DHT22;18810;53.040;8.850;2022-12-18T14:31:27;-1.80;99.90
32334;DHT22;18810;53.040;8.850;2022-12-18T14:33:54;-1.90;99.90
32334;DHT22;18810;53.040;8.850;2022-12-18T14:36:27;-1.90;99.90
32334;DHT22;18810;53.040;8.850;2022-12-18T14:38:55;-1.90;99.90
32334;DHT22;18810;53.040;8.850;2022-12-18T14:41:23;-1.90;99.90
32334;DHT22;18810;53.040;8.850;2022-12-18T14:43:53;-2.00;99.90
32334;DHT22;18810;53.040;8.850;2022-12-18T14:48:53;-2.00;99.90
32334;DHT22;18810;53.040;8.850;2022-12-18T14:51:24;-1.40;99.90
32334;DHT22;18810;53.040;8.850;2022-12-18T14:54:01;-2.10;99.90
32334;DHT22;18810;53.040;8.850;2022-12-18T14:56:33;-2.00;99.90
32334;DHT22;18810;53.040;8.850;2022-12-18T14:59:01;-2.00;99.90
32334;DHT22;18810;53.040;8.850;2022-12-18T15:01:34;-2.00;99.90
32334;DHT22;18810;53.040;8.850;2022-12-18T15:04:02;-2.00;99.90
32334;DHT22;18810;53.040;8.850;2022-12-18T15:06:31;-2.00;99.90
32334;DHT22;18810;53.040;8.850;2022-12-18T15:08:59;-1.90;99.90
32334;DHT22;18810;53.040;8.850;2022-12-18T15:11:34;-1.90;99.90
32334;DHT22;18810;53.040;8.850;2022-12-18T15:14:03;-2.00;99.90
32334;DHT22;18810;53.040;8.850;2022-12-18T15:16:53;-2.00;99.90
32334;DHT22;18810;53.040;8.850;2022-12-18T15:19:21;-2.10;99.90
32334;DHT22;18810;53.040;8.850;2022-12-18T15:21:48;-2.10;99.90
32334;DHT22;18810;53.040;8.850;2022-12-18T15:24:18;-2.00;99.90
32334;DHT22;18810;53.040;8.850;2022-12-18T15:26:46;-2.00;99.90
32334;DHT22;18810;53.040;8.850;2022-12-18T15:29:20;-2.10;99.90
32334;DHT22;18810;53.040;8.850;2022-12-18T15:32:18;-2.00;99.90
32334;DHT22;18810;53.040;8.850;2022-12-18T15:34:44;-2.00;99.90
32334;DHT22;18810;53.040;8.850;2022-12-18T15:37:10;-2.00;99.90
32334;DHT22;18810;53.040;8.850;2022-12-18T15:39:36;-2.00;99.90
32334;DHT22;18810;53.040;8.850;2022-12-18T15:42:02;-2.00;99.90
32334;DHT22;18810;53.040;8.850;2022-12-18T15:44:46;-2.00;99.90
32334;DHT22;18810;53.040;8.850;2022-12-18T15:47:12;-2.00;99.90
32334;DHT22;18810;53.040;8.850;2022-12-18T15:49:39;-2.00;99.90
32334;DHT22;18810;53.040;8.850;2022-12-18T15:52:05;-2.00;99.90
32334;DHT22;18810;53.040;8.850;2022-12-18T15:54:31;-2.70;99.90
32334;DHT22;18810;53.040;8.850;2022-12-18T15:57:15;-2.10;99.90
32334;DHT22;18810;53.040;8.850;2022-12-18T15:59:55;-2.00;99.90
32334;DHT22;18810;53.040;8.850;2022-12-18T16:02:23;-2.10;99.90
32334;DHT22;18810;53.040;8.850;2022-12-18T16:04:50;-2.10;99.90
32334;DHT22;18810;53.040;8.850;2022-12-18T16:07:17;-2.00;99.90
32334;DHT22;18810;53.040;8.850;2022-12-18T16:09:43;-2.00;99.90
32334;DHT22;18810;53.040;8.850;2022-12-18T16:12:18;-2.00;99.90
32334;DHT22;18810;53.040;8.850;2022-12-18T16:14:45;-1.90;99.90
32334;DHT22;18810;53.040;8.850;2022-12-18T16:17:12;-2.00;99.90
32334;DHT22;18810;53.040;8.850;2022-12-18T16:19:38;-1.90;99.90
32334;DHT22;18810;53.040;8.850;2022-12-18T16:22:04;-1.90;99.90
32334;DHT22;18810;53.040;8.850;2022-12-18T16:24:32;-2.00;99.90
32334;DHT22;18810;53.040;8.850;2022-12-18T16:26:59;-2.20;99.90
32334;DHT22;18810;53.040;8.850;2022-12-18T16:29:26;-2.00;99.90
32334;DHT22;18810;53.040;8.850;2022-12-18T16:31:54;-2.10;99.90
32334;DHT22;18810;53.040;8.850;2022-12-18T16:36:52;-2.00;99.90
32334;DHT22;18810;53.040;8.850;2022-12-18T16:39:21;-2.00;99.90
32334;DHT22;18810;53.040;8.850;2022-12-18T16:41:47;-2.00;99.90
32334;DHT22;18810;53.040;8.850;2022-12-18T16:44:13;-1.90;99.90
32334;DHT22;18810;53.040;8.850;2022-12-18T16:46:39;-1.90;99.90
32334;DHT22;18810;53.040;8.850;2022-12-18T16:49:08;-1.90;99.90
32334;DHT22;18810;53.040;8.850;2022-12-18T16:51:35;-2.00;99.90
32334;DHT22;18810;53.040;8.850;2022-12-18T16:54:01;-2.10;99.90
32334;DHT22;18810;53.040;8.850;2022-12-18T16:56:27;-2.10;99.90
32334;DHT22;18810;53.040;8.850;2022-12-18T16:58:54;-2.10;99.90
32334;DHT22;18810;53.040;8.850;2022-12-18T17:01:21;-1.90;99.90
32334;DHT22;18810;53.040;8.850;2022-12-18T17:03:55;-2.10;99.90
32334;DHT22;18810;53.040;8.850;2022-12-18T17:06:22;-2.10;99.90
32334;DHT22;18810;53.040;8.850;2022-12-18T17:08:53;-2.10;99.90
32334;DHT22;18810;53.040;8.850;2022-12-18T17:11:19;-2.10;99.90
32334;DHT22;18810;53.040;8.850;2022-12-18T17:13:46;-2.10;99.90
32334;DHT22;18810;53.040;8.850;2022-12-18T17:16:12;-2.00;99.90
32334;DHT22;18810;53.040;8.850;2022-12-18T17:18:37;-2.10;99.90
32334;DHT22;18810;53.040;8.850;2022-12-18T17:21:05;-2.00;99.90
32334;DHT22;18810;53.040;8.850;2022-12-18T17:23:31;-2.00;99.90
32334;DHT22;18810;53.040;8.850;2022-12-18T17:25:58;-2.00;99.90
32334;DHT22;18810;53.040;8.850;2022-12-18T17:28:24;-2.00;99.90
32334;DHT22;18810;53.040;8.850;2022-12-18T17:30:54;-2.10;99.90
32334;DHT22;18810;53.040;8.850;2022-12-18T17:33:20;-2.10;99.90
32334;DHT22;18810;53.040;8.850;2022-12-18T17:35:46;-2.10;99.90
32334;DHT22;18810;53.040;8.850;2022-12-18T17:38:13;-2.10;99.90
32334;DHT22;18810;53.040;8.850;2022-12-18T17:40:39;-2.10;99.90
32334;DHT22;18810;53.040;8.850;2022-12-18T17:43:06;-2.00;99.90
32334;DHT22;18810;53.040;8.850;2022-12-18T17:45:36;-1.90;99.90